ATX5114 RPLL-RPEN
Flight info
| Callsign | ATX5114 |
|---|---|
| Flight time | 0h 58m |
| Altitude | 14000 |
| Route | BUCAL4V BUCAL M646 TOKON |
| Aircraft | AT76/M-SDFGIRY/S |
Departure
| Time | 2026-05-04 15:26 |
|---|---|
| Airport | Ninoy Aquino International Airport (RPLL) |
Arrival
| Time | 2026-05-04 16:24 |
|---|---|
| Airport | El Nido Airport (RPEN) |
| Time | Latitude | Longitude | Altitude | Speed | Heading |
|---|---|---|---|---|---|
| 2026-05-04 15:04 | 14.50666 | 121.01006 | 53 ft | 0 kts | 9° |
| 2026-05-04 15:04 | 14.50666 | 121.01005 | 48 ft | 0 kts | 332° |
| 2026-05-04 15:04 | 14.50710 | 121.01115 | 51 ft | 0 kts | 332° |
| 2026-05-04 15:05 | 14.50711 | 121.01116 | 51 ft | 0 kts | 332° |
| 2026-05-04 15:14 | 14.50699 | 121.01123 | 48 ft | 2 kts | 331° |
| 2026-05-04 15:15 | 14.50684 | 121.01131 | 49 ft | 2 kts | 329° |
| 2026-05-04 15:15 | 14.50673 | 121.01143 | 51 ft | 2 kts | 303° |
| 2026-05-04 15:15 | 14.50665 | 121.01158 | 47 ft | 2 kts | 274° |
| 2026-05-04 15:16 | 14.50677 | 121.01183 | 50 ft | 0 kts | 239° |
| 2026-05-04 15:19 | 14.50609 | 121.01128 | 51 ft | 8 kts | 161° |
| 2026-05-04 15:19 | 14.50559 | 121.01116 | 56 ft | 10 kts | 234° |
| 2026-05-04 15:19 | 14.50472 | 121.00963 | 59 ft | 18 kts | 240° |
| 2026-05-04 15:20 | 14.50396 | 121.00826 | 55 ft | 22 kts | 240° |
| 2026-05-04 15:20 | 14.50319 | 121.00690 | 64 ft | 27 kts | 238° |
| 2026-05-04 15:20 | 14.50232 | 121.00528 | 67 ft | 23 kts | 240° |
| 2026-05-04 15:20 | 14.50158 | 121.00398 | 70 ft | 20 kts | 240° |
| 2026-05-04 15:21 | 14.50070 | 121.00238 | 73 ft | 28 kts | 240° |
| 2026-05-04 15:21 | 14.49985 | 121.00086 | 75 ft | 22 kts | 239° |
| 2026-05-04 15:21 | 14.49875 | 120.99966 | 81 ft | 6 kts | 163° |
| 2026-05-04 15:22 | 14.49873 | 120.99967 | 81 ft | 0 kts | 159° |
| 2026-05-04 15:23 | 14.49824 | 120.99991 | 80 ft | 11 kts | 150° |
| 2026-05-04 15:23 | 14.49801 | 121.00040 | 81 ft | 7 kts | 63° |
| 2026-05-04 15:24 | 14.49810 | 121.00056 | 81 ft | 0 kts | 61° |
| 2026-05-04 15:25 | 14.49816 | 121.00067 | 83 ft | 16 kts | 61° |
| 2026-05-04 15:25 | 14.49975 | 121.00356 | 72 ft | 76 kts | 59° |
| 2026-05-04 15:25 | 14.50338 | 121.00998 | 69 ft | 127 kts | 60° |
| 2026-05-04 15:26 | 14.51285 | 121.02664 | 1086 ft | 142 kts | 59° |
| 2026-05-04 15:26 | 14.51794 | 121.03535 | 1784 ft | 142 kts | 60° |
| 2026-05-04 15:26 | 14.52732 | 121.05320 | 2889 ft | 139 kts | 62° |
| 2026-05-04 15:27 | 14.53174 | 121.06231 | 3211 ft | 149 kts | 68° |
| 2026-05-04 15:27 | 14.52023 | 121.08027 | 3709 ft | 186 kts | 167° |
| 2026-05-04 15:28 | 14.49861 | 121.06691 | 4444 ft | 198 kts | 233° |
| 2026-05-04 15:28 | 14.49076 | 121.05524 | 4887 ft | 198 kts | 234° |
| 2026-05-04 15:28 | 14.47514 | 121.03007 | 5312 ft | 216 kts | 237° |
| 2026-05-04 15:29 | 14.46703 | 121.01682 | 5660 ft | 216 kts | 237° |
| 2026-05-04 15:30 | 14.42417 | 120.98058 | 7212 ft | 204 kts | 204° |
| 2026-05-04 15:30 | 14.38497 | 120.96240 | 8299 ft | 208 kts | 200° |
| 2026-05-04 15:31 | 14.35842 | 120.94984 | 8881 ft | 211 kts | 201° |
| 2026-05-04 15:31 | 14.34511 | 120.94340 | 9247 ft | 212 kts | 201° |
| 2026-05-04 15:32 | 14.30473 | 120.92368 | 10283 ft | 216 kts | 202° |
| 2026-05-04 15:32 | 14.27752 | 120.91050 | 10939 ft | 217 kts | 201° |
| 2026-05-04 15:33 | 14.25035 | 120.89708 | 11537 ft | 216 kts | 202° |
| 2026-05-04 15:34 | 14.20954 | 120.87691 | 12389 ft | 217 kts | 203° |
| 2026-05-04 15:34 | 14.19590 | 120.87019 | 12686 ft | 217 kts | 202° |
| 2026-05-04 15:34 | 14.16851 | 120.85695 | 13167 ft | 218 kts | 202° |
| 2026-05-04 15:35 | 14.14096 | 120.84381 | 13619 ft | 218 kts | 202° |
| 2026-05-04 15:35 | 14.12717 | 120.83723 | 13831 ft | 218 kts | 202° |
| 2026-05-04 15:35 | 14.11331 | 120.83061 | 13970 ft | 219 kts | 202° |
| 2026-05-04 15:36 | 14.08588 | 120.81737 | 14256 ft | 220 kts | 202° |
| 2026-05-04 15:36 | 14.07202 | 120.81066 | 14389 ft | 220 kts | 202° |
| 2026-05-04 15:36 | 14.05817 | 120.80393 | 14542 ft | 220 kts | 202° |
| 2026-05-04 15:37 | 14.04428 | 120.79722 | 14704 ft | 221 kts | 202° |
| 2026-05-04 15:37 | 14.03036 | 120.79049 | 14864 ft | 221 kts | 202° |
| 2026-05-04 15:37 | 14.01647 | 120.78378 | 15027 ft | 221 kts | 203° |
| 2026-05-04 15:37 | 14.00253 | 120.77701 | 15163 ft | 222 kts | 203° |
| 2026-05-04 15:38 | 13.98852 | 120.77025 | 15309 ft | 223 kts | 203° |
| 2026-05-04 15:38 | 13.97450 | 120.76345 | 15456 ft | 223 kts | 203° |
| 2026-05-04 15:38 | 13.96045 | 120.75668 | 15601 ft | 223 kts | 203° |
| 2026-05-04 15:38 | 13.94639 | 120.74987 | 15754 ft | 223 kts | 203° |
| 2026-05-04 15:39 | 13.93227 | 120.74305 | 15882 ft | 224 kts | 203° |
| 2026-05-04 15:39 | 13.91809 | 120.73624 | 16011 ft | 225 kts | 203° |
| 2026-05-04 15:39 | 13.88974 | 120.72246 | 16248 ft | 226 kts | 203° |
| 2026-05-04 15:40 | 13.87552 | 120.71560 | 16365 ft | 226 kts | 203° |
| 2026-05-04 15:40 | 13.86129 | 120.70874 | 16492 ft | 226 kts | 203° |
| 2026-05-04 15:40 | 13.84703 | 120.70186 | 16627 ft | 227 kts | 203° |
| 2026-05-04 15:40 | 13.83271 | 120.69495 | 16760 ft | 227 kts | 203° |
| 2026-05-04 15:41 | 13.81836 | 120.68801 | 16889 ft | 228 kts | 203° |
| 2026-05-04 15:41 | 13.80399 | 120.68107 | 17022 ft | 228 kts | 203° |
| 2026-05-04 15:41 | 13.78977 | 120.67422 | 17153 ft | 229 kts | 203° |
| 2026-05-04 15:41 | 13.77537 | 120.66727 | 17311 ft | 229 kts | 203° |
| 2026-05-04 15:42 | 13.76092 | 120.66029 | 17446 ft | 230 kts | 203° |
| 2026-05-04 15:42 | 13.74645 | 120.65329 | 17561 ft | 230 kts | 203° |
| 2026-05-04 15:42 | 13.73194 | 120.64630 | 17677 ft | 230 kts | 203° |
| 2026-05-04 15:42 | 13.71748 | 120.63930 | 17816 ft | 229 kts | 203° |
| 2026-05-04 15:43 | 13.70293 | 120.63229 | 17880 ft | 232 kts | 203° |
| 2026-05-04 15:43 | 13.68822 | 120.62520 | 17911 ft | 235 kts | 203° |
| 2026-05-04 15:43 | 13.67331 | 120.61800 | 17927 ft | 239 kts | 203° |
| 2026-05-04 15:43 | 13.65819 | 120.61069 | 17934 ft | 242 kts | 203° |
| 2026-05-04 15:44 | 13.64282 | 120.60329 | 17939 ft | 245 kts | 203° |
| 2026-05-04 15:44 | 13.62728 | 120.59580 | 17942 ft | 247 kts | 203° |
| 2026-05-04 15:44 | 13.61164 | 120.58828 | 17938 ft | 249 kts | 203° |
| 2026-05-04 15:44 | 13.59588 | 120.58071 | 17942 ft | 251 kts | 203° |
| 2026-05-04 15:45 | 13.58000 | 120.57305 | 17943 ft | 253 kts | 203° |
| 2026-05-04 15:45 | 13.56423 | 120.56544 | 17940 ft | 254 kts | 203° |
| 2026-05-04 15:45 | 13.54813 | 120.55769 | 17940 ft | 255 kts | 203° |
| 2026-05-04 15:45 | 13.53204 | 120.54995 | 17928 ft | 256 kts | 204° |
| 2026-05-04 15:46 | 13.51592 | 120.54218 | 17939 ft | 256 kts | 204° |
| 2026-05-04 15:46 | 13.49977 | 120.53440 | 17936 ft | 256 kts | 204° |
| 2026-05-04 15:46 | 13.48360 | 120.52661 | 17962 ft | 256 kts | 204° |
| 2026-05-04 15:46 | 13.46746 | 120.51876 | 17991 ft | 258 kts | 204° |
| 2026-05-04 15:47 | 13.45116 | 120.51081 | 17981 ft | 260 kts | 204° |
| 2026-05-04 15:47 | 13.43481 | 120.50277 | 17980 ft | 261 kts | 204° |
| 2026-05-04 15:47 | 13.41838 | 120.49471 | 17996 ft | 262 kts | 204° |
| 2026-05-04 15:47 | 13.40187 | 120.48669 | 17972 ft | 263 kts | 204° |
| 2026-05-04 15:48 | 13.38522 | 120.47868 | 17970 ft | 264 kts | 204° |
| 2026-05-04 15:48 | 13.36857 | 120.47067 | 17969 ft | 264 kts | 203° |
| 2026-05-04 15:48 | 13.33539 | 120.45466 | 17939 ft | 262 kts | 204° |
| 2026-05-04 15:49 | 13.31894 | 120.44673 | 17934 ft | 261 kts | 204° |
| 2026-05-04 15:49 | 13.30252 | 120.43884 | 17931 ft | 260 kts | 203° |
| 2026-05-04 15:49 | 13.28612 | 120.43100 | 17933 ft | 259 kts | 203° |
| 2026-05-04 15:49 | 13.27004 | 120.42327 | 17930 ft | 259 kts | 204° |
| 2026-05-04 15:50 | 13.25374 | 120.41542 | 17933 ft | 258 kts | 203° |
| 2026-05-04 15:50 | 13.23748 | 120.40761 | 17931 ft | 258 kts | 203° |
| 2026-05-04 15:50 | 13.22125 | 120.39982 | 17924 ft | 257 kts | 203° |
| 2026-05-04 15:50 | 13.20501 | 120.39202 | 17923 ft | 257 kts | 203° |
| 2026-05-04 15:51 | 13.18881 | 120.38424 | 17925 ft | 257 kts | 203° |
| 2026-05-04 15:51 | 13.17264 | 120.37649 | 17922 ft | 257 kts | 203° |
| 2026-05-04 15:51 | 13.15646 | 120.36871 | 17926 ft | 256 kts | 203° |
| 2026-05-04 15:51 | 13.14032 | 120.36097 | 17925 ft | 256 kts | 203° |
| 2026-05-04 15:52 | 13.12417 | 120.35322 | 17923 ft | 256 kts | 203° |
| 2026-05-04 15:52 | 13.10802 | 120.34547 | 17920 ft | 256 kts | 203° |
| 2026-05-04 15:52 | 13.09188 | 120.33774 | 17924 ft | 256 kts | 203° |
| 2026-05-04 15:52 | 13.07574 | 120.32998 | 17924 ft | 256 kts | 203° |
| 2026-05-04 15:53 | 13.05960 | 120.32226 | 17925 ft | 256 kts | 203° |
| 2026-05-04 15:53 | 13.04894 | 120.31715 | 17925 ft | 256 kts | 203° |
| 2026-05-04 15:53 | 13.02756 | 120.30690 | 17927 ft | 256 kts | 203° |
| 2026-05-04 15:53 | 13.01144 | 120.29916 | 17925 ft | 256 kts | 203° |
| 2026-05-04 15:54 | 12.99530 | 120.29142 | 17926 ft | 256 kts | 203° |
| 2026-05-04 15:54 | 12.97916 | 120.28371 | 17923 ft | 256 kts | 203° |
| 2026-05-04 15:54 | 12.96301 | 120.27602 | 17924 ft | 256 kts | 203° |
| 2026-05-04 15:54 | 12.95228 | 120.27091 | 17922 ft | 256 kts | 203° |
| 2026-05-04 15:55 | 12.93612 | 120.26329 | 17922 ft | 256 kts | 202° |
| 2026-05-04 15:55 | 12.91993 | 120.25570 | 17923 ft | 256 kts | 202° |
| 2026-05-04 15:55 | 12.90375 | 120.24815 | 17922 ft | 256 kts | 202° |
| 2026-05-04 15:55 | 12.88754 | 120.24047 | 17919 ft | 256 kts | 203° |
| 2026-05-04 15:56 | 12.87138 | 120.23276 | 17925 ft | 256 kts | 203° |
| 2026-05-04 15:56 | 12.85524 | 120.22503 | 17923 ft | 256 kts | 203° |
| 2026-05-04 15:56 | 12.83909 | 120.21732 | 17923 ft | 256 kts | 203° |
| 2026-05-04 15:56 | 12.82293 | 120.20958 | 17923 ft | 256 kts | 203° |
| 2026-05-04 15:57 | 12.80698 | 120.20195 | 17923 ft | 256 kts | 203° |
| 2026-05-04 15:57 | 12.79084 | 120.19421 | 17923 ft | 256 kts | 203° |
| 2026-05-04 15:57 | 12.77468 | 120.18649 | 17927 ft | 256 kts | 203° |
| 2026-05-04 15:57 | 12.75853 | 120.17876 | 17923 ft | 256 kts | 203° |
| 2026-05-04 15:58 | 12.74238 | 120.17104 | 17923 ft | 256 kts | 203° |
| 2026-05-04 15:58 | 12.72624 | 120.16333 | 17922 ft | 256 kts | 203° |
| 2026-05-04 15:58 | 12.71012 | 120.15562 | 17919 ft | 256 kts | 203° |
| 2026-05-04 15:58 | 12.69396 | 120.14790 | 17922 ft | 256 kts | 203° |
| 2026-05-04 15:59 | 12.67784 | 120.14020 | 17922 ft | 256 kts | 203° |
| 2026-05-04 15:59 | 12.66169 | 120.13249 | 17920 ft | 256 kts | 203° |
| 2026-05-04 15:59 | 12.64551 | 120.12475 | 17921 ft | 256 kts | 202° |
| 2026-05-04 15:59 | 12.62940 | 120.11707 | 17919 ft | 256 kts | 202° |
| 2026-05-04 16:00 | 12.61322 | 120.10933 | 17918 ft | 256 kts | 202° |
| 2026-05-04 16:00 | 12.59708 | 120.10163 | 17920 ft | 256 kts | 203° |
| 2026-05-04 16:00 | 12.58093 | 120.09392 | 17918 ft | 256 kts | 202° |
| 2026-05-04 16:00 | 12.56502 | 120.08632 | 17924 ft | 256 kts | 202° |
| 2026-05-04 16:01 | 12.54888 | 120.07860 | 17921 ft | 256 kts | 202° |
| 2026-05-04 16:01 | 12.53253 | 120.07081 | 17918 ft | 256 kts | 202° |
| 2026-05-04 16:01 | 12.51663 | 120.06322 | 17917 ft | 256 kts | 202° |
| 2026-05-04 16:01 | 12.50044 | 120.05550 | 17922 ft | 256 kts | 202° |
| 2026-05-04 16:02 | 12.48431 | 120.04780 | 17923 ft | 256 kts | 202° |
| 2026-05-04 16:02 | 12.46814 | 120.04009 | 17920 ft | 256 kts | 202° |
| 2026-05-04 16:02 | 12.43583 | 120.02468 | 17922 ft | 256 kts | 202° |
| 2026-05-04 16:03 | 12.41966 | 120.01696 | 17918 ft | 256 kts | 202° |
| 2026-05-04 16:03 | 12.40352 | 120.00927 | 17921 ft | 256 kts | 202° |
| 2026-05-04 16:03 | 12.38736 | 120.00158 | 17922 ft | 256 kts | 202° |
| 2026-05-04 16:03 | 12.37119 | 119.99387 | 17922 ft | 256 kts | 202° |
| 2026-05-04 16:04 | 12.35508 | 119.98619 | 17925 ft | 256 kts | 202° |
| 2026-05-04 16:04 | 12.32296 | 119.97089 | 17924 ft | 256 kts | 202° |
| 2026-05-04 16:04 | 12.30679 | 119.96319 | 17918 ft | 256 kts | 202° |
| 2026-05-04 16:05 | 12.29065 | 119.95550 | 17917 ft | 256 kts | 202° |
| 2026-05-04 16:05 | 12.27446 | 119.94779 | 17919 ft | 256 kts | 202° |
| 2026-05-04 16:05 | 12.24210 | 119.93238 | 17920 ft | 257 kts | 202° |
| 2026-05-04 16:06 | 12.22592 | 119.92467 | 17921 ft | 257 kts | 202° |
| 2026-05-04 16:06 | 12.18258 | 119.90405 | 17915 ft | 258 kts | 202° |
| 2026-05-04 16:07 | 12.16079 | 119.89368 | 17916 ft | 258 kts | 202° |
| 2026-05-04 16:07 | 12.11201 | 119.87047 | 17921 ft | 258 kts | 202° |
| 2026-05-04 16:08 | 12.09577 | 119.86275 | 17917 ft | 258 kts | 202° |
| 2026-05-04 16:08 | 12.04712 | 119.83962 | 17917 ft | 258 kts | 202° |
| 2026-05-04 16:09 | 12.01458 | 119.82416 | 17913 ft | 258 kts | 202° |
| 2026-05-04 16:09 | 11.98204 | 119.80870 | 17915 ft | 258 kts | 202° |
| 2026-05-04 16:10 | 11.94968 | 119.79333 | 17913 ft | 258 kts | 202° |
| 2026-05-04 16:11 | 11.90087 | 119.77014 | 17914 ft | 258 kts | 202° |
| 2026-05-04 16:11 | 11.88455 | 119.76238 | 17915 ft | 258 kts | 202° |
| 2026-05-04 16:12 | 11.83483 | 119.73881 | 17093 ft | 287 kts | 203° |
| 2026-05-04 16:12 | 11.77485 | 119.71025 | 14716 ft | 318 kts | 204° |
| 2026-05-04 16:13 | 11.73531 | 119.69098 | 13083 ft | 311 kts | 204° |
| 2026-05-04 16:13 | 11.69658 | 119.67257 | 11883 ft | 306 kts | 204° |
| 2026-05-04 16:14 | 11.66133 | 119.64916 | 10709 ft | 301 kts | 216° |
| 2026-05-04 16:14 | 11.62812 | 119.62364 | 9671 ft | 296 kts | 217° |
| 2026-05-04 16:15 | 11.57965 | 119.58575 | 8120 ft | 286 kts | 217° |
| 2026-05-04 16:16 | 11.54871 | 119.56109 | 7346 ft | 277 kts | 217° |
| 2026-05-04 16:16 | 11.50447 | 119.52535 | 6648 ft | 269 kts | 217° |
| 2026-05-04 16:17 | 11.47542 | 119.50155 | 6180 ft | 267 kts | 217° |
| 2026-05-04 16:18 | 11.43234 | 119.46568 | 5450 ft | 266 kts | 217° |
| 2026-05-04 16:18 | 11.41812 | 119.45370 | 5203 ft | 265 kts | 217° |
| 2026-05-04 16:19 | 11.37924 | 119.41999 | 4478 ft | 227 kts | 217° |
| 2026-05-04 16:19 | 11.35620 | 119.39961 | 3994 ft | 213 kts | 217° |
| 2026-05-04 16:20 | 11.32067 | 119.37925 | 3272 ft | 189 kts | 194° |
| 2026-05-04 16:20 | 11.29633 | 119.37027 | 2819 ft | 182 kts | 193° |
| 2026-05-04 16:21 | 11.26496 | 119.37205 | 2041 ft | 149 kts | 134° |
| 2026-05-04 16:22 | 11.24921 | 119.38529 | 1308 ft | 144 kts | 146° |
| 2026-05-04 16:22 | 11.22625 | 119.40057 | 546 ft | 119 kts | 145° |
| 2026-05-04 16:23 | 11.20585 | 119.41401 | 37 ft | 109 kts | 146° |
| 2026-05-04 16:24 | 11.19805 | 119.41904 | 14 ft | 1 kts | 111° |
| 2026-05-04 16:25 | 11.19857 | 119.41878 | 14 ft | 19 kts | 327° |
| 2026-05-04 16:26 | 11.20149 | 119.41737 | 14 ft | 7 kts | 56° |
| 2026-05-04 16:26 | 11.20116 | 119.41822 | 15 ft | 0 kts | 145° |